Archival Weather

Sulphur Springs Muni

Sulphur Springs, Texas (KSLR)

Report from: Thursday, September 21, 2023 6:13 AM CDT
Current time: Saturday, February 24, 2024 9:01 AM CST

Current weather – Weather history – Daily summaries
Weather forecast

Temperature20.0°C (68.0°F)
Dew point19.0°C (66.2°F)
Winds 4 kts (2.1 m/s, 4.6 mph) East-Northeast (70°)
Visibility10 mi. (16.1 km)
Clouds Sky clear
Altimeter30.02 in.Hg (1017 mB)
Relative humidity94 %
Density altitude771 ft. (235 m)
Remarks Fully automated report
Automated weather observing station with precipitation discriminator
Flight conditions Visual Meteorological Conditions
Raw dataKSLR 211113Z AUTO 07004KT 10SM CLR 20/19 A3002 RMK AO2
An error has occurred. This application may no longer respond until reloaded. Reload 🗙